Abbottstown, Pennsylvania
Current Conditions -  °F | °C
As of 5:53 PM on Thursday 18 Dec 2014 (Local Time) from KTHV Reporting Station
Overcast Overcast  
Wind Chill: -1°   Ceiling: 3100
Heat Index:   Visibility: 10mi
Dew Point: -5°   Wind: 6mph
Humidity: 61%   Direction: 300°WNW
Pressure: 30.07"   Gusts: NA
Location:  39.89°N, 76.98°W
Report Text: KTHV 182253Z AUTO 30005KT 10SM OVC031 02/M05 A3007 RMK AO2 SLP190 T00171050
Loading
Personal Weather Stations






























Interactive Weather Map New forecast layout! Learn more

10-Day Weather Forecast

Advertisements
Track Severe Weather on mobile